Time;durP1;ratioP1;P1;durP2;ratioP2;P2;SDS_P1;SDS_P2;PMS_P1;PMS_P2;Temp;Humidity;BMP_temperature;BMP_pressure;BME280_temperature;BME280_humidity;BME280_pressure;Samples;Min_cycle;Max_cycle;Signal;HPM_P1;HPM_P2
2022/12/16 00:01:26;;;;;;;72.93;42.05;;;;;;;-5.83;100.00;101020.03;4976179;28;20363;-74
2022/12/16 00:03:53;;;;;;;69.88;41.53;;;;;;;-5.85;100.00;101008.28;4976007;28;20027;-75
2022/12/16 00:06:20;;;;;;;72.45;41.97;;;;;;;-5.89;100.00;101011.63;4976284;28;20022;-76
2022/12/16 00:08:46;;;;;;;73.95;42.58;;;;;;;-5.94;100.00;101011.59;4976156;28;20031;-75
2022/12/16 00:11:12;;;;;;;75.10;45.45;;;;;;;-5.94;100.00;101016.63;4976059;28;20033;-76
2022/12/16 00:13:41;;;;;;;66.15;42.05;;;;;;;-5.91;100.00;101013.28;4975812;28;20034;-76
2022/12/16 00:16:12;;;;;;;70.13;41.92;;;;;;;-5.77;100.00;101011.69;4975953;28;20054;-77
2022/12/16 00:18:38;;;;;;;66.60;41.83;;;;;;;-5.74;100.00;100986.53;4976137;28;20149;-77
2022/12/16 00:21:05;;;;;;;69.80;43.25;;;;;;;-5.46;100.00;101009.34;4975936;28;20027;-75
2022/12/16 00:23:31;;;;;;;69.13;42.70;;;;;;;-5.25;100.00;101017.00;4975904;28;20023;-75
2022/12/16 00:25:56;;;;;;;77.50;44.08;;;;;;;-5.17;100.00;101009.50;4975861;28;20030;-75
2022/12/16 00:28:22;;;;;;;75.97;45.22;;;;;;;-5.00;100.00;101016.28;4975872;28;20085;-76
2022/12/16 00:30:52;;;;;;;71.78;43.00;;;;;;;-5.04;100.00;100989.38;4975548;28;20493;-75
2022/12/16 00:33:19;;;;;;;72.57;42.80;;;;;;;-4.87;100.00;100996.16;4975426;28;20098;-75
2022/12/16 00:35:44;;;;;;;66.13;42.13;;;;;;;-4.80;100.00;100986.13;4975642;28;20050;-75
2022/12/16 00:38:10;;;;;;;76.15;44.38;;;;;;;-4.55;100.00;101008.81;4975880;28;20493;-75
2022/12/16 00:40:35;;;;;;;70.32;41.53;;;;;;;-4.48;100.00;101002.97;4975801;28;20057;-75
2022/12/16 00:43:00;;;;;;;75.47;44.42;;;;;;;-4.51;100.00;100987.84;4975623;28;20027;-76
2022/12/16 00:45:26;;;;;;;68.45;42.17;;;;;;;-4.62;100.00;100971.03;4975662;28;20034;-79
2022/12/16 00:47:51;;;;;;;68.75;42.47;;;;;;;-4.32;100.00;100998.78;4975603;28;20027;-75
2022/12/16 00:50:19;;;;;;;65.90;40.20;;;;;;;-4.21;100.00;101013.06;4975451;28;20422;-78
2022/12/16 00:52:46;;;;;;;66.00;41.65;;;;;;;-4.26;100.00;100999.59;4975710;28;20026;-80
2022/12/16 00:55:11;;;;;;;67.47;40.83;;;;;;;-4.16;100.00;101006.34;4975849;28;20161;-78
2022/12/16 00:57:37;;;;;;;67.20;41.35;;;;;;;-4.12;100.00;101013.09;4975382;28;20528;-77
2022/12/16 01:00:04;;;;;;;69.30;41.30;;;;;;;-4.14;100.00;100999.59;4975494;28;20117;-77
2022/12/16 01:02:30;;;;;;;75.10;42.60;;;;;;;-4.00;100.00;101011.38;4975289;28;20045;-77
2022/12/16 01:04:55;;;;;;;65.78;41.90;;;;;;;-3.96;100.00;101013.06;4975079;28;20497;-78
2022/12/16 01:07:21;;;;;;;70.15;41.97;;;;;;;-4.01;100.00;101004.66;4975386;28;20098;-76
2022/12/16 01:09:46;;;;;;;63.17;40.85;;;;;;;-3.84;100.00;101020.59;4975356;28;20069;-75
2022/12/16 01:12:11;;;;;;;67.20;41.90;;;;;;;-3.92;100.00;101002.97;4975077;28;20054;-77
2022/12/16 01:14:37;;;;;;;69.63;41.63;;;;;;;-3.77;100.00;101025.66;4975195;28;20025;-77
2022/12/16 01:17:02;;;;;;;68.32;42.38;;;;;;;-3.81;100.00;101023.16;4974956;28;20050;-78
2022/12/16 01:19:27;;;;;;;68.13;41.88;;;;;;;-3.71;100.00;101034.91;4975198;28;20026;-77
2022/12/16 01:21:53;;;;;;;65.55;41.05;;;;;;;-3.67;100.00;101030.69;4974915;28;20026;-77
2022/12/16 01:24:18;;;;;;;71.40;42.30;;;;;;;-3.65;100.00;101034.03;4974767;28;20026;-76
2022/12/16 01:26:43;;;;;;;73.05;43.58;;;;;;;-4.03;100.00;100974.41;4975179;28;20074;-76
2022/12/16 01:29:09;;;;;;;73.50;42.55;;;;;;;-3.86;100.00;100981.94;4974842;28;20118;-76
2022/12/16 01:31:34;;;;;;;71.85;43.53;;;;;;;-3.57;100.00;101027.31;4974865;28;20089;-77
2022/12/16 01:33:59;;;;;;;68.18;41.90;;;;;;;-3.42;100.00;101049.16;4974698;28;20058;-77
2022/12/16 01:36:25;;;;;;;65.88;42.05;;;;;;;-3.49;100.00;101040.75;4974791;28;20066;-76
2022/12/16 01:38:50;;;;;;;69.53;43.38;;;;;;;-3.39;100.00;101055.03;4974669;28;20144;-77
2022/12/16 01:41:16;;;;;;;67.22;42.08;;;;;;;-3.39;100.00;101056.72;4974893;28;20474;-77
2022/12/16 01:43:43;;;;;;;67.55;43.25;;;;;;;-3.47;100.00;101042.44;4974655;28;20046;-77
2022/12/16 01:46:11;;;;;;;66.93;42.10;;;;;;;-3.33;100.00;101062.63;4973960;28;20027;-77
2022/12/16 01:48:57;;;;;;;68.78;42.08;;;;;;;-3.36;100.00;101066.81;4974722;28;20042;-77
2022/12/16 01:51:36;;;;;;;66.35;42.63;;;;;;;-3.29;100.00;101071.00;4974513;28;20026;-77
2022/12/16 01:54:13;;;;;;;65.65;41.53;;;;;;;-3.28;100.00;101067.63;4974465;28;20030;-77
2022/12/16 01:56:42;;;;;;;67.07;42.88;;;;;;;-3.28;100.00;101065.13;4957253;28;20118;-76
2022/12/16 01:59:10;;;;;;;67.65;42.25;;;;;;;-3.31;100.00;101063.44;4974375;28;20041;-77
2022/12/16 02:01:36;;;;;;;68.18;42.65;;;;;;;-3.22;100.00;101075.22;4974713;28;20015;-77
2022/12/16 02:04:02;;;;;;;68.22;41.78;;;;;;;-3.21;100.00;101072.69;4974616;28;20470;-77
2022/12/16 02:06:30;;;;;;;64.60;40.88;;;;;;;-3.18;100.00;101075.19;4974227;28;20023;-77
2022/12/16 02:08:57;;;;;;;65.78;42.05;;;;;;;-3.17;100.00;101073.50;4974457;28;20027;-77
2022/12/16 02:11:44;;;;;;;66.18;42.58;;;;;;;-3.14;100.00;101081.09;4974432;28;20435;-76
2022/12/16 02:14:44;;;;;;;67.82;42.20;;;;;;;-3.11;100.00;101093.69;4974410;28;20375;-77
2022/12/16 02:17:52;;;;;;;71.22;41.15;;;;;;;-3.11;100.00;101085.28;4974571;28;20081;-77
2022/12/16 02:20:36;;;;;;;67.68;40.90;;;;;;;-3.20;100.00;101071.81;4973898;28;20445;-80
2022/12/16 02:23:28;;;;;;;63.42;39.83;;;;;;;-3.02;100.00;101096.19;4974019;28;20038;-80
2022/12/16 02:26:39;;;;;;;61.72;40.97;;;;;;;-3.03;100.00;101096.22;4974266;28;20039;-81
2022/12/16 02:29:27;;;;;;;69.38;41.50;;;;;;;-2.98;100.00;101097.84;4933774;29;20036;-81
2022/12/16 02:32:10;;;;;;;70.68;41.80;;;;;;;-2.91;100.00;101098.69;4943763;28;20058;-80
2022/12/16 02:35:05;;;;;;;71.85;42.42;;;;;;;-2.88;100.00;101091.94;4952711;29;20475;-78
2022/12/16 02:37:52;;;;;;;61.72;41.03;;;;;;;-2.85;100.00;101096.16;4949167;29;20039;-80
2022/12/16 02:40:41;;;;;;;65.70;40.55;;;;;;;-2.83;100.00;101101.19;4952764;29;20039;-81
2022/12/16 02:43:14;;;;;;;64.25;41.30;;;;;;;-2.82;100.00;101096.13;4952712;29;20043;-81
2022/12/16 02:45:39;;;;;;;66.50;41.05;;;;;;;-2.87;100.00;101085.19;4952699;29;20043;-80
2022/12/16 02:48:05;;;;;;;63.88;41.83;;;;;;;-2.94;100.00;101073.44;4952740;29;20360;-77
2022/12/16 02:50:44;;;;;;;66.93;42.03;;;;;;;-2.76;100.00;101105.34;4952710;29;20081;-77
2022/12/16 02:53:10;;;;;;;64.80;39.75;;;;;;;-3.04;100.00;101054.13;4952498;29;20110;-77
2022/12/16 02:55:59;;;;;;;68.88;43.58;;;;;;;-2.72;100.00;101112.09;4952693;28;20118;-81
2022/12/16 02:58:45;;;;;;;69.80;42.03;;;;;;;-2.70;100.00;101108.72;4956348;29;20035;-81
2022/12/16 03:01:29;;;;;;;67.00;42.15;;;;;;;-2.91;100.00;101074.25;4955613;29;20421;-81
2022/12/16 03:04:11;;;;;;;63.35;41.03;;;;;;;-2.75;100.00;101097.78;4960192;28;20478;-81
2022/12/16 03:06:39;;;;;;;;;;;;;;;-2.63;100.00;101102.78;4977990;28;20027;-81
2022/12/16 03:09:09;;;;;;;66.80;40.08;;;;;;;-2.62;100.00;101107.00;4977570;28;19917;-80
2022/12/16 03:11:39;;;;;;;67.05;40.90;;;;;;;-2.67;100.00;101105.31;4977284;28;20117;-81
2022/12/16 03:14:07;;;;;;;67.68;42.88;;;;;;;-2.63;100.00;101115.44;4977551;28;20030;-81
2022/12/16 03:16:33;;;;;;;67.30;42.45;;;;;;;-2.70;100.00;101097.75;4977288;28;20105;-80
2022/12/16 03:19:02;;;;;;;65.55;42.28;;;;;;;-2.67;100.00;101092.69;4977380;28;20019;-81
2022/12/16 03:21:33;;;;;;;64.95;43.25;;;;;;;-2.71;100.00;101086.81;4977481;28;20023;-80
2022/12/16 03:24:07;;;;;;;71.35;42.95;;;;;;;-2.72;100.00;101081.78;4977099;28;20034;-77
2022/12/16 03:27:24;;;;;;;63.50;41.28;;;;;;;-2.54;100.00;101116.25;4977204;28;20034;-77
2022/12/16 03:29:49;;;;;;;71.65;43.80;;;;;;;-2.53;100.00;101120.44;4917812;28;20033;-77
2022/12/16 03:32:24;;;;;;;71.55;43.15;;;;;;;-2.53;100.00;101116.22;4917508;29;20499;-77
2022/12/16 03:34:55;;;;;;;64.10;42.33;;;;;;;-2.51;100.00;101123.81;4917553;29;20036;-77
2022/12/16 03:37:26;;;;;;;67.35;43.15;;;;;;;-2.60;100.00;101112.88;4917092;29;20043;-77
2022/12/16 03:39:54;;;;;;;67.45;41.75;;;;;;;-2.57;100.00;101112.03;4917256;29;20429;-80
2022/12/16 03:42:20;;;;;;;68.13;43.42;;;;;;;-2.42;100.00;101126.28;4917237;29;20108;-77
2022/12/16 03:44:46;;;;;;;71.57;43.47;;;;;;;-2.42;100.00;101131.34;4917199;29;20114;-77
2022/12/16 03:47:12;;;;;;;73.45;44.63;;;;;;;-2.41;100.00;101138.94;4917242;29;20043;-77
2022/12/16 03:49:38;;;;;;;72.30;42.88;;;;;;;-2.38;100.00;101145.66;4917355;29;20028;-76
2022/12/16 03:52:03;;;;;;;70.60;43.22;;;;;;;-2.36;100.00;101142.28;4917019;29;20040;-77
2022/12/16 03:54:29;;;;;;;67.18;43.72;;;;;;;-2.33;100.00;101149.00;4916882;29;20531;-77
2022/12/16 03:56:54;;;;;;;66.72;43.03;;;;;;;-2.37;100.00;101144.78;4917002;29;20044;-74
2022/12/16 03:59:20;;;;;;;71.22;42.95;;;;;;;-2.33;100.00;101152.38;4916733;28;20483;-74
2022/12/16 04:01:45;;;;;;;70.75;43.75;;;;;;;-2.31;100.00;101152.38;4916810;29;20067;-74
2022/12/16 04:04:10;;;;;;;67.80;41.53;;;;;;;-2.29;100.00;101158.25;4916743;29;20028;-74
2022/12/16 04:06:36;;;;;;;68.93;42.35;;;;;;;-2.35;100.00;101149.03;4956526;28;20401;-74
2022/12/16 04:09:01;;;;;;;67.90;43.75;;;;;;;-2.29;100.00;101157.41;4975565;28;20031;-74
2022/12/16 04:25:25;;;;;;;69.75;43.97;;;;;;;-2.14;100.00;101177.59;4975918;28;20045;-75
2022/12/16 04:27:50;;;;;;;73.07;44.78;;;;;;;-2.12;100.00;101179.25;4975828;28;20387;-77
2022/12/16 04:30:26;;;;;;;70.93;44.35;;;;;;;-2.10;100.00;101184.31;4976037;28;20037;-74
